createdAt,value
2019-05-05T00:01:45.099Z,1.93
2019-05-05T00:04:36.828Z,2.17
2019-05-05T00:07:06.758Z,1.80
2019-05-05T00:09:36.332Z,1.90
2019-05-05T00:12:16.488Z,1.57
2019-05-05T00:15:14.591Z,1.80
2019-05-05T00:17:45.001Z,1.35
2019-05-05T00:20:14.752Z,1.50
2019-05-05T00:22:45.504Z,1.60
2019-05-05T00:25:15.187Z,1.83
2019-05-05T00:27:46.471Z,2.02
2019-05-05T00:30:16.286Z,1.67
2019-05-05T00:32:46.433Z,1.80
2019-05-05T00:35:16.434Z,1.50
2019-05-05T00:37:46.289Z,1.77
2019-05-05T00:40:16.333Z,1.45
2019-05-05T00:42:46.349Z,1.40
2019-05-05T00:45:16.461Z,1.80
2019-05-05T00:47:51.660Z,2.27
2019-05-05T00:50:22.520Z,2.22
2019-05-05T00:52:52.028Z,1.70
2019-05-05T00:55:21.508Z,2.07
2019-05-05T00:57:51.020Z,1.90
2019-05-05T01:00:40.636Z,1.77
2019-05-05T01:03:10.648Z,1.90
2019-05-05T01:05:55.461Z,2.30
2019-05-05T01:08:27.657Z,2.30
2019-05-05T01:10:57.598Z,1.53
2019-05-05T01:13:27.284Z,1.70
2019-05-05T01:15:56.893Z,1.50
2019-05-05T01:18:26.439Z,1.32
2019-05-05T01:20:55.917Z,1.70
2019-05-05T01:23:25.537Z,1.62
2019-05-05T01:25:55.003Z,1.73
2019-05-05T01:28:25.058Z,1.40
2019-05-05T01:30:59.515Z,1.57
2019-05-05T01:33:48.046Z,1.87
2019-05-05T01:36:17.514Z,2.30
2019-05-05T01:39:04.266Z,2.80
2019-05-05T01:41:39.294Z,1.98
2019-05-05T01:44:08.947Z,1.73
2019-05-05T01:46:38.471Z,2.07
2019-05-05T01:49:07.971Z,1.40
2019-05-05T01:51:37.455Z,1.80
2019-05-05T01:54:06.968Z,1.83
2019-05-05T01:56:36.520Z,2.27
2019-05-05T01:59:06.088Z,1.93
2019-05-05T02:01:35.659Z,1.73
2019-05-05T02:04:05.673Z,1.73
2019-05-05T02:06:35.296Z,2.33
2019-05-05T02:09:06.675Z,1.43
2019-05-05T02:11:37.768Z,2.10
2019-05-05T02:14:07.324Z,2.00
2019-05-05T02:16:36.868Z,2.10
2019-05-05T02:19:06.425Z,1.60
2019-05-05T02:21:36.038Z,2.60
2019-05-05T02:24:05.603Z,2.43
2019-05-05T02:26:35.502Z,2.20
2019-05-05T02:29:26.059Z,2.27
2019-05-05T02:32:20.840Z,1.87
2019-05-05T02:34:56.212Z,1.67
2019-05-05T02:37:26.074Z,1.73
2019-05-05T02:40:02.636Z,2.03
2019-05-05T02:42:27.948Z,2.40
2019-05-05T02:45:00.270Z,2.27
2019-05-05T02:47:54.909Z,2.30
2019-05-05T02:50:27.398Z,2.27
2019-05-05T02:52:58.591Z,2.35
2019-05-05T02:55:28.266Z,2.30
2019-05-05T02:57:57.930Z,2.33
2019-05-05T03:00:45.779Z,1.97
2019-05-05T03:03:15.499Z,1.43
2019-05-05T03:05:44.981Z,2.50
2019-05-05T03:08:14.445Z,1.67
2019-05-05T03:10:44.344Z,1.80
2019-05-05T03:13:14.942Z,2.33
2019-05-05T03:15:52.358Z,1.40
2019-05-05T03:18:24.572Z,1.80
2019-05-05T03:21:02.358Z,2.30
2019-05-05T03:23:26.430Z,2.05
2019-05-05T03:25:56.003Z,2.23
2019-05-05T03:28:27.403Z,1.90
2019-05-05T03:30:56.984Z,2.53
2019-05-05T03:33:26.543Z,2.33
2019-05-05T03:35:56.097Z,2.07
2019-05-05T03:38:25.580Z,1.93
2019-05-05T03:40:56.760Z,1.80
2019-05-05T03:43:30.634Z,2.47
2019-05-05T03:46:04.405Z,2.87
2019-05-05T03:48:34.665Z,1.95
2019-05-05T03:51:17.461Z,2.50
2019-05-05T03:53:35.484Z,2.20
2019-05-05T03:56:05.086Z,2.00
2019-05-05T03:58:34.908Z,2.35
2019-05-05T04:01:28.065Z,2.13
2019-05-05T04:04:16.607Z,2.70
2019-05-05T04:06:47.071Z,2.00
2019-05-05T04:09:16.794Z,1.93
2019-05-05T04:11:46.315Z,2.27
2019-05-05T04:14:18.404Z,2.43
2019-05-05T04:17:04.588Z,2.30
2019-05-05T04:19:35.101Z,3.00
2019-05-05T04:22:04.652Z,2.20
2019-05-05T04:24:34.337Z,2.33
2019-05-05T04:27:04.095Z,2.50
2019-05-05T04:29:34.465Z,2.20
2019-05-05T04:32:04.737Z,2.42
2019-05-05T04:34:34.859Z,2.93
2019-05-05T04:37:04.427Z,2.05
2019-05-05T04:39:34.454Z,3.33
2019-05-05T04:42:04.782Z,2.97
2019-05-05T04:44:34.858Z,2.30
2019-05-05T04:47:11.469Z,2.43
2019-05-05T04:49:50.796Z,2.40
2019-05-05T04:52:20.837Z,2.77
2019-05-05T04:54:52.318Z,2.70
2019-05-05T04:57:23.916Z,2.57
2019-05-05T04:59:54.062Z,3.60
2019-05-05T05:02:47.700Z,3.20
2019-05-05T05:05:26.128Z,2.77
2019-05-05T05:07:57.961Z,3.58
2019-05-05T05:10:26.893Z,2.80
2019-05-05T05:12:57.578Z,2.90
2019-05-05T05:15:27.082Z,4.00
2019-05-05T05:18:04.115Z,3.60
2019-05-05T05:20:34.072Z,2.90
2019-05-05T05:23:04.582Z,2.83
2019-05-05T05:25:34.740Z,2.80
2019-05-05T05:28:04.651Z,2.60
2019-05-05T05:30:34.798Z,3.07
2019-05-05T05:33:04.537Z,3.73
2019-05-05T05:35:34.111Z,2.97
2019-05-05T05:38:04.806Z,2.87
2019-05-05T05:41:05.344Z,3.03
2019-05-05T05:43:46.648Z,2.60
2019-05-05T05:46:29.339Z,3.43
2019-05-05T05:49:24.236Z,2.92
2019-05-05T05:51:53.921Z,2.67
2019-05-05T05:54:23.605Z,3.23
2019-05-05T05:56:53.857Z,3.30
2019-05-05T05:59:24.703Z,2.60
2019-05-05T06:02:08.707Z,3.73
2019-05-05T06:04:25.830Z,2.77
2019-05-05T06:06:55.296Z,3.20
2019-05-05T06:09:24.789Z,3.43
2019-05-05T06:11:54.349Z,3.33
2019-05-05T06:14:24.720Z,6.00
2019-05-05T06:16:54.373Z,4.58
2019-05-05T06:19:24.675Z,3.67
2019-05-05T06:21:55.178Z,3.57
2019-05-05T06:24:24.686Z,3.77
2019-05-05T06:26:54.799Z,3.42
2019-05-05T06:29:24.665Z,3.55
2019-05-05T06:31:54.563Z,3.05
2019-05-05T06:34:24.670Z,3.83
2019-05-05T06:36:54.581Z,3.47
2019-05-05T06:39:24.268Z,3.15
2019-05-05T06:42:11.420Z,3.03
2019-05-05T06:44:47.820Z,3.67
2019-05-05T06:47:23.672Z,2.87
2019-05-05T06:49:54.198Z,3.57
2019-05-05T06:52:24.855Z,2.90
2019-05-05T06:54:54.399Z,3.40
2019-05-05T06:57:24.138Z,2.10
2019-05-05T06:59:54.430Z,2.80
2019-05-05T07:02:24.135Z,3.57
2019-05-05T07:04:54.663Z,3.63
2019-05-05T07:07:24.345Z,4.00
2019-05-05T07:09:54.722Z,2.53
2019-05-05T07:12:24.335Z,3.60
2019-05-05T07:14:53.962Z,3.30
2019-05-05T07:17:24.481Z,3.40
2019-05-05T07:19:54.467Z,3.40
2019-05-05T07:22:24.582Z,3.33
2019-05-05T07:24:54.358Z,2.73
2019-05-05T07:27:24.268Z,3.00
2019-05-05T07:29:54.252Z,2.80
2019-05-05T07:32:24.545Z,3.47
2019-05-05T07:35:28.092Z,3.17
2019-05-05T07:37:57.673Z,2.70
2019-05-05T07:40:27.170Z,3.10
2019-05-05T07:42:56.633Z,3.80
2019-05-05T07:45:26.132Z,3.10
2019-05-05T07:47:55.611Z,3.43
2019-05-05T07:50:32.015Z,3.35
2019-05-05T07:53:10.565Z,3.40
2019-05-05T07:55:28.480Z,3.42
2019-05-05T07:57:58.086Z,2.90
2019-05-05T08:00:27.632Z,2.93
2019-05-05T08:02:57.382Z,2.60
2019-05-05T08:05:26.907Z,3.20
2019-05-05T08:07:56.518Z,3.00
2019-05-05T08:10:26.093Z,3.07
2019-05-05T08:12:55.591Z,2.90
2019-05-05T08:15:26.447Z,2.37
2019-05-05T08:18:15.004Z,2.47
2019-05-05T08:20:47.560Z,3.00
2019-05-05T08:23:30.283Z,3.53
2019-05-05T08:26:11.219Z,2.67
2019-05-05T08:28:48.723Z,4.47
2019-05-05T08:31:24.875Z,2.73
2019-05-05T08:33:54.888Z,3.47
2019-05-05T08:36:24.823Z,2.33
2019-05-05T08:39:00.289Z,3.05
2019-05-05T08:41:33.919Z,2.17
2019-05-05T08:44:03.742Z,2.20
2019-05-05T08:46:37.588Z,1.70
2019-05-05T08:49:07.416Z,2.17
2019-05-05T08:51:37.023Z,1.70
2019-05-05T08:54:06.563Z,1.83
2019-05-05T08:56:36.073Z,1.60
2019-05-05T08:59:05.655Z,1.53
2019-05-05T09:01:35.112Z,1.90
2019-05-05T09:04:04.713Z,2.23
2019-05-05T09:06:37.668Z,1.97
2019-05-05T09:09:07.052Z,1.60
2019-05-05T09:11:36.690Z,2.23
2019-05-05T09:14:06.272Z,2.30
2019-05-05T09:16:35.747Z,1.47
2019-05-05T09:19:10.006Z,1.77
2019-05-05T09:21:39.475Z,2.27
2019-05-05T09:24:29.766Z,1.50
2019-05-05T09:27:24.881Z,1.80
2019-05-05T09:29:55.475Z,1.70
2019-05-05T09:32:24.973Z,1.90
2019-05-05T09:34:54.459Z,2.40
2019-05-05T09:37:24.671Z,1.40
2019-05-05T09:39:54.263Z,1.90
2019-05-05T09:42:23.847Z,2.63
2019-05-05T09:44:54.193Z,2.00
2019-05-05T09:47:24.101Z,1.63
2019-05-05T09:49:54.940Z,2.10
2019-05-05T09:52:24.576Z,2.03
2019-05-05T09:54:54.545Z,1.77
2019-05-05T09:57:23.995Z,1.60
2019-05-05T09:59:56.401Z,1.83
2019-05-05T10:02:26.069Z,1.73
2019-05-05T10:04:55.609Z,1.93
2019-05-05T10:07:25.124Z,2.05
2019-05-05T10:09:54.646Z,1.47
2019-05-05T10:12:24.144Z,1.63
2019-05-05T10:14:54.300Z,1.70
2019-05-05T10:17:24.403Z,1.70
2019-05-05T10:19:54.659Z,1.87
2019-05-05T10:22:24.171Z,1.50
2019-05-05T10:25:12.741Z,1.73
2019-05-05T10:27:47.529Z,1.70
2019-05-05T10:30:14.612Z,1.33
2019-05-05T10:32:44.218Z,1.50
2019-05-05T10:35:14.350Z,1.30
2019-05-05T10:37:44.015Z,1.60
2019-05-05T10:40:16.182Z,1.07
2019-05-05T10:42:53.700Z,1.47
2019-05-05T10:45:24.413Z,1.60
2019-05-05T10:47:54.223Z,1.60
2019-05-05T10:50:24.660Z,1.07
2019-05-05T10:52:54.489Z,1.30
2019-05-05T10:55:24.313Z,1.60
2019-05-05T10:57:54.507Z,1.47
2019-05-05T11:00:41.142Z,1.33
2019-05-05T11:03:10.713Z,1.07
2019-05-05T11:05:40.564Z,1.13
2019-05-05T11:08:10.076Z,1.27
2019-05-05T11:10:39.992Z,1.83
2019-05-05T11:13:09.549Z,1.70
2019-05-05T11:15:39.150Z,1.77
2019-05-05T11:18:08.793Z,1.20
2019-05-05T11:20:38.296Z,1.23
2019-05-05T11:23:07.796Z,1.23
2019-05-05T11:25:37.375Z,1.93
2019-05-05T11:28:08.795Z,1.33
2019-05-05T11:30:40.598Z,1.40
2019-05-05T11:33:20.253Z,1.57
2019-05-05T11:35:56.100Z,1.62
2019-05-05T11:38:25.637Z,2.20
2019-05-05T11:40:55.151Z,1.70
2019-05-05T11:43:24.874Z,2.60
2019-05-05T11:45:54.635Z,1.73
2019-05-05T11:48:25.208Z,1.40
2019-05-05T11:50:54.719Z,1.37
2019-05-05T11:53:25.135Z,1.47
2019-05-05T11:55:55.256Z,1.10
2019-05-05T11:58:25.076Z,1.50
2019-05-05T12:00:54.863Z,1.50
2019-05-05T12:03:24.406Z,1.10
2019-05-05T12:05:53.912Z,1.10
2019-05-05T12:08:23.904Z,1.70
2019-05-05T12:10:58.936Z,1.73
2019-05-05T12:13:28.449Z,1.50
2019-05-05T12:16:04.618Z,1.80
2019-05-05T12:18:35.277Z,1.70
2019-05-05T12:21:05.430Z,1.47
2019-05-05T12:23:35.220Z,1.90
2019-05-05T12:26:30.386Z,1.97
2019-05-05T12:29:25.096Z,1.80
2019-05-05T12:31:55.672Z,2.03
2019-05-05T12:34:25.187Z,2.17
2019-05-05T12:36:54.686Z,2.37
2019-05-05T12:39:24.172Z,1.80
2019-05-05T12:41:54.269Z,1.77
2019-05-05T12:44:34.001Z,2.23
2019-05-05T12:47:14.416Z,1.67
2019-05-05T12:49:44.414Z,1.67
2019-05-05T12:52:14.646Z,1.50
2019-05-05T12:54:46.980Z,1.75
2019-05-05T12:57:16.488Z,2.17
2019-05-05T12:59:45.965Z,2.47
2019-05-05T13:02:15.553Z,1.90
2019-05-05T13:04:45.049Z,2.43
2019-05-05T13:07:14.878Z,2.27
2019-05-05T13:09:44.903Z,2.70
2019-05-05T13:12:15.155Z,2.92
2019-05-05T13:14:44.892Z,2.83
2019-05-05T13:17:14.944Z,2.40
2019-05-05T13:20:03.011Z,3.80
2019-05-05T13:22:40.925Z,3.30
2019-05-05T13:25:24.689Z,2.17
2019-05-05T13:27:57.194Z,3.37
2019-05-05T13:30:26.811Z,3.37
2019-05-05T13:32:56.480Z,2.60
2019-05-05T13:35:26.083Z,3.50
2019-05-05T13:37:55.580Z,2.80
2019-05-05T13:40:25.134Z,2.77
2019-05-05T13:42:54.829Z,2.10
2019-05-05T13:45:34.375Z,2.40
2019-05-05T13:48:04.425Z,2.83
2019-05-05T13:50:38.071Z,3.45
2019-05-05T13:53:07.795Z,3.80
2019-05-05T13:55:37.765Z,4.67
2019-05-05T13:58:08.934Z,3.53
2019-05-05T14:00:38.603Z,4.00
2019-05-05T14:03:08.197Z,3.40
2019-05-05T14:05:37.753Z,3.33
2019-05-05T14:08:07.311Z,4.30
2019-05-05T14:10:36.780Z,3.50
2019-05-05T14:13:06.844Z,4.00
2019-05-05T14:15:36.319Z,4.03
2019-05-05T14:18:06.075Z,3.10
2019-05-05T14:20:35.652Z,3.27
2019-05-05T14:23:05.274Z,4.13
2019-05-05T14:25:34.780Z,3.27
2019-05-05T14:28:04.330Z,3.30
2019-05-05T14:30:59.385Z,3.13
2019-05-05T14:33:48.658Z,3.12
2019-05-05T14:36:28.522Z,3.67
2019-05-05T14:38:58.748Z,2.80
2019-05-05T14:41:28.298Z,3.77
2019-05-05T14:43:57.825Z,3.40
2019-05-05T14:46:27.330Z,4.15
2019-05-05T14:48:56.867Z,4.33
2019-05-05T14:51:26.373Z,3.67
2019-05-05T14:53:55.869Z,2.90
2019-05-05T14:56:35.672Z,3.80
2019-05-05T14:58:56.576Z,3.87
2019-05-05T15:01:26.070Z,3.40
2019-05-05T15:03:55.593Z,4.05
2019-05-05T15:06:34.906Z,3.22
2019-05-05T15:09:21.933Z,3.77
2019-05-05T15:12:14.321Z,3.65
2019-05-05T15:14:44.055Z,3.40
2019-05-05T15:17:14.138Z,4.00
2019-05-05T15:19:43.745Z,2.97
2019-05-05T15:22:15.014Z,4.17
2019-05-05T15:24:44.711Z,3.47
2019-05-05T15:27:15.173Z,2.87
2019-05-05T15:29:44.676Z,3.65
2019-05-05T15:32:14.922Z,3.63
2019-05-05T15:34:44.657Z,3.10
2019-05-05T15:37:14.549Z,2.80
2019-05-05T15:39:45.119Z,2.80
2019-05-05T15:42:14.807Z,3.50
2019-05-05T15:44:44.359Z,5.03
2019-05-05T15:47:13.893Z,3.50
2019-05-05T15:49:44.107Z,4.87
2019-05-05T15:52:13.866Z,4.37
2019-05-05T15:54:44.759Z,3.87
2019-05-05T15:57:18.025Z,3.43
2019-05-05T15:59:47.156Z,3.67
2019-05-05T16:02:17.078Z,4.30
2019-05-05T16:04:47.328Z,10.45
2019-05-05T16:07:17.025Z,10.10
2019-05-05T16:09:46.888Z,4.80
2019-05-05T16:12:17.270Z,3.35
2019-05-05T16:14:55.408Z,9.27
2019-05-05T16:17:34.868Z,3.60
2019-05-05T16:20:10.073Z,3.58
2019-05-05T16:22:46.493Z,3.53
2019-05-05T16:25:16.868Z,4.07
2019-05-05T16:27:46.415Z,2.60
2019-05-05T16:30:16.572Z,2.30
2019-05-05T16:32:46.160Z,3.13
2019-05-05T16:35:15.944Z,3.27
2019-05-05T16:37:45.460Z,2.70
2019-05-05T16:40:15.407Z,4.10
2019-05-05T16:42:45.045Z,3.77
2019-05-05T16:45:16.464Z,3.90
2019-05-05T16:47:46.176Z,3.37
2019-05-05T16:50:15.739Z,3.57
2019-05-05T16:52:54.373Z,2.43
2019-05-05T16:55:29.548Z,3.30
2019-05-05T16:57:59.525Z,3.13
2019-05-05T17:00:29.079Z,3.37
2019-05-05T17:02:59.841Z,3.00
2019-05-05T17:05:31.436Z,2.90
2019-05-05T17:08:01.879Z,3.50
2019-05-05T17:10:34.100Z,3.27
2019-05-05T17:13:19.538Z,3.20
2019-05-05T17:16:07.014Z,3.40
2019-05-05T17:18:45.080Z,3.80
2019-05-05T17:21:18.114Z,3.72
2019-05-05T17:23:47.627Z,3.10
2019-05-05T17:26:17.096Z,3.40
2019-05-05T17:28:46.598Z,4.15
2019-05-05T17:31:16.094Z,4.00
2019-05-05T17:33:45.704Z,3.90
2019-05-05T17:36:15.184Z,3.57
2019-05-05T17:38:44.778Z,4.40
2019-05-05T17:41:28.941Z,3.80
2019-05-05T17:44:04.583Z,3.22
2019-05-05T17:46:56.232Z,4.37
2019-05-05T17:49:31.242Z,3.53
2019-05-05T17:52:17.742Z,3.00
2019-05-05T17:54:50.209Z,3.90
2019-05-05T17:57:19.712Z,3.47
2019-05-05T17:59:49.195Z,3.23
2019-05-05T18:02:18.850Z,4.03
2019-05-05T18:04:48.383Z,3.40
2019-05-05T18:07:29.394Z,3.00
2019-05-05T18:10:30.018Z,2.73
2019-05-05T18:13:17.474Z,4.60
2019-05-05T18:15:54.411Z,3.92
2019-05-05T18:18:24.141Z,2.83
2019-05-05T18:20:54.216Z,3.17
2019-05-05T18:23:24.825Z,3.40
2019-05-05T18:25:54.903Z,3.23
2019-05-05T18:28:24.735Z,4.00
2019-05-05T18:30:54.246Z,3.60
2019-05-05T18:33:24.658Z,3.87
2019-05-05T18:35:54.267Z,2.40
2019-05-05T18:38:23.825Z,4.43
2019-05-05T18:40:54.909Z,4.23
2019-05-05T18:43:31.528Z,4.03
2019-05-05T18:46:04.393Z,2.90
2019-05-05T18:48:34.572Z,3.10
2019-05-05T18:51:05.199Z,3.22
2019-05-05T18:53:35.235Z,4.95
2019-05-05T18:56:05.053Z,3.23
2019-05-05T18:58:35.650Z,4.35
2019-05-05T19:01:15.260Z,3.30
2019-05-05T19:04:04.186Z,4.33
2019-05-05T19:07:05.296Z,4.97
2019-05-05T19:09:35.158Z,3.83
2019-05-05T19:12:05.227Z,3.40
2019-05-05T19:14:35.195Z,3.65
2019-05-05T19:17:05.263Z,4.10
2019-05-05T19:19:36.096Z,3.80
2019-05-05T19:22:09.309Z,3.80
2019-05-05T19:24:39.043Z,5.00
2019-05-05T19:27:08.526Z,3.77
2019-05-05T19:29:38.153Z,3.87
2019-05-05T19:32:07.679Z,3.50
2019-05-05T19:34:37.324Z,3.97
2019-05-05T19:37:06.827Z,3.50
2019-05-05T19:39:36.356Z,3.13
2019-05-05T19:42:05.869Z,4.43
2019-05-05T19:44:35.412Z,3.43
2019-05-05T19:47:17.671Z,3.62
2019-05-05T19:49:53.721Z,3.35
2019-05-05T19:52:24.040Z,4.08
2019-05-05T19:54:54.701Z,2.80
2019-05-05T19:57:24.385Z,3.93
2019-05-05T19:59:54.353Z,3.73
2019-05-05T20:02:24.163Z,4.70
2019-05-05T20:04:53.778Z,3.07
2019-05-05T20:07:24.832Z,3.60
2019-05-05T20:09:54.506Z,3.20
2019-05-05T20:12:24.943Z,4.30
2019-05-05T20:14:54.709Z,2.95
2019-05-05T20:17:35.005Z,3.27
2019-05-05T20:20:06.114Z,2.63
2019-05-05T20:22:35.685Z,4.00
2019-05-05T20:25:08.330Z,4.33
2019-05-05T20:27:37.925Z,3.03
2019-05-05T20:30:07.684Z,4.87
2019-05-05T20:32:43.946Z,4.40
2019-05-05T20:35:25.346Z,4.87
2019-05-05T20:38:04.977Z,4.63
2019-05-05T20:40:36.746Z,3.90
2019-05-05T20:43:06.252Z,4.42
2019-05-05T20:45:36.057Z,4.60
2019-05-05T20:48:05.681Z,4.30
2019-05-05T20:50:35.174Z,4.30
2019-05-05T20:53:05.029Z,3.50
2019-05-05T20:55:34.691Z,4.50
2019-05-05T20:58:04.785Z,4.43
2019-05-05T21:00:34.900Z,4.62
2019-05-05T21:03:04.934Z,3.93
2019-05-05T21:05:34.556Z,4.23
2019-05-05T21:08:04.820Z,4.28
2019-05-05T21:10:34.982Z,4.10
2019-05-05T21:13:04.539Z,4.50
2019-05-05T21:15:34.335Z,4.23
2019-05-05T21:18:05.037Z,3.25
2019-05-05T21:20:34.897Z,3.97
2019-05-05T21:23:14.405Z,4.20
2019-05-05T21:25:50.607Z,3.23
2019-05-05T21:28:20.126Z,4.17
2019-05-05T21:30:49.679Z,4.03
2019-05-05T21:33:19.177Z,4.67
2019-05-05T21:35:48.683Z,4.10
2019-05-05T21:38:18.184Z,5.20
2019-05-05T21:40:48.748Z,4.70
2019-05-05T21:43:18.244Z,4.37
2019-05-05T21:45:47.710Z,4.97
2019-05-05T21:48:17.262Z,5.03
2019-05-05T21:50:54.007Z,4.53
2019-05-05T21:53:37.736Z,3.23
2019-05-05T21:56:24.745Z,3.83
2019-05-05T21:58:54.250Z,5.77
2019-05-05T22:01:27.192Z,4.42
2019-05-05T22:03:55.515Z,4.97
2019-05-05T22:06:24.999Z,4.80
2019-05-05T22:08:54.492Z,4.13
2019-05-05T22:11:24.390Z,4.27
2019-05-05T22:13:54.196Z,3.43
2019-05-05T22:16:23.669Z,4.00
2019-05-05T22:18:54.201Z,4.53
2019-05-05T22:21:45.866Z,4.20
2019-05-05T22:24:22.846Z,4.60
2019-05-05T22:26:54.206Z,3.52
2019-05-05T22:29:24.942Z,3.62
2019-05-05T22:31:54.613Z,4.37
2019-05-05T22:34:24.264Z,3.37
2019-05-05T22:36:53.812Z,3.80
2019-05-05T22:39:24.394Z,3.50
2019-05-05T22:41:54.473Z,4.33
2019-05-05T22:44:24.397Z,3.33
2019-05-05T22:46:54.028Z,4.30
2019-05-05T22:49:24.147Z,4.33
2019-05-05T22:51:54.168Z,3.53
2019-05-05T22:54:24.185Z,5.30
2019-05-05T22:56:54.006Z,4.17
2019-05-05T22:59:26.132Z,3.62
2019-05-05T23:01:54.750Z,3.93
2019-05-05T23:04:39.096Z,3.30
2019-05-05T23:07:14.565Z,3.80
2019-05-05T23:09:44.398Z,5.17
2019-05-05T23:12:13.876Z,3.83
2019-05-05T23:14:43.780Z,4.07
2019-05-05T23:17:35.385Z,3.73
2019-05-05T23:20:25.018Z,4.20
2019-05-05T23:23:04.756Z,3.10
2019-05-05T23:25:38.055Z,4.33
2019-05-05T23:28:07.551Z,3.60
2019-05-05T23:30:41.491Z,4.13
2019-05-05T23:33:08.219Z,4.70
2019-05-05T23:35:38.980Z,3.87
2019-05-05T23:38:08.471Z,3.30
2019-05-05T23:40:37.976Z,3.83
2019-05-05T23:43:07.454Z,3.73
2019-05-05T23:45:37.620Z,4.00
2019-05-05T23:48:07.206Z,4.30
2019-05-05T23:50:36.698Z,4.80
2019-05-05T23:53:06.196Z,3.63
2019-05-05T23:55:35.671Z,5.67
2019-05-05T23:58:05.225Z,4.30
